Bafoussam, Cameroon
Current Conditions -  °F | °C
As of 1:00 AM on Sunday 23 Nov 2014 (Local Time) from FKKD Reporting Station
Thunderstorm Thunderstorm  
Wind Chill: 79°   Ceiling: 1600
Heat Index: 83°   Visibility: 6mi
Dew Point: 79°   Wind: 0mph
Humidity: 100%   Direction: NA
Pressure: 29.85"   Gusts: NA
Location:  5.49°N, 10.41°E
Report Text: FKKD 230000Z 00000KT 9999 TS BKN016 FEW020CB 26/26 Q1011 NOSIG
Loading
Personal Weather Stations






























Interactive Weather Map New forecast layout! Learn more

10-Day Weather Forecast

Advertisements
Track Severe Weather on mobile